Time;durP1;ratioP1;P1;durP2;ratioP2;P2;SDS_P1;SDS_P2;PMS_P1;PMS_P2;Temp;Humidity;BMP_temperature;BMP_pressure;BME280_temperature;BME280_humidity;BME280_pressure;Samples;Min_cycle;Max_cycle;Signal;HPM_P1;HPM_P2
2021/10/29 00:00:25;;;;;;;;;;;;;;;9.61;59.31;100728.16;5003901;28;20016;-80
2021/10/29 00:03:01;;;;;;;;;;;;;;;9.59;59.47;100737.66;5004555;28;19928;-79
2021/10/29 00:05:27;;;;;;;;;;;;;;;9.61;59.54;100738.56;5003784;28;19922;-78
2021/10/29 00:07:52;;;;;;;;;;;;;;;9.60;59.46;100729.00;5006033;28;19929;-77
2021/10/29 00:10:19;;;;;;;;;;;;;;;9.57;58.94;100719.47;5010850;28;19995;-77
2021/10/29 00:12:45;;;;;;;;;;;;;;;9.48;59.29;100719.38;5008418;28;19952;-78
2021/10/29 00:15:10;;;;;;;;;;;;;;;9.43;59.69;100711.53;5005052;28;20305;-76
2021/10/29 00:17:36;;;;;;;;;;;;;;;9.37;59.21;100719.25;5007506;28;20118;-79
2021/10/29 00:20:03;;;;;;;;;;;;;;;9.36;59.22;100727.03;5008053;28;20122;-77
2021/10/29 00:22:28;;;;;;;;;;;;;;;9.33;59.40;100733.94;5009370;28;19929;-79
2021/10/29 00:24:54;;;;;;;;;;;;;;;9.31;59.41;100743.44;5005903;28;21291;-78
2021/10/29 00:27:20;;;;;;;;;;;;;;;9.30;59.36;100746.00;5007554;28;20305;-76
2021/10/29 00:29:45;;;;;;;;;;;;;;;9.31;59.79;100751.22;5007679;28;20390;-77
2021/10/29 00:32:11;;;;;;;;;;;;;;;9.29;59.61;100750.34;4995015;28;20008;-78
2021/10/29 00:34:36;;;;;;;;;;;;;;;9.30;59.78;100756.38;5005100;28;19925;-78
2021/10/29 00:37:02;;;;;;;;;;;;;;;9.31;59.43;100755.53;4994423;28;19921;-79
2021/10/29 00:39:28;;;;;;;;;;;;;;;9.34;59.56;100753.88;5006071;28;20400;-76
2021/10/29 00:41:54;;;;;;;;;;;;;;;9.36;59.47;100750.41;5005932;28;19944;-77
2021/10/29 00:44:20;;;;;;;;;;;;;;;9.36;59.82;100740.88;5006104;28;19921;-77
2021/10/29 00:46:46;;;;;;;;;;;;;;;9.26;59.45;100747.69;4992258;28;19921;-78
2021/10/29 00:49:11;;;;;;;;;;;;;;;9.26;59.67;100755.50;5006981;28;19921;-80
2021/10/29 00:51:37;;;;;;;;;;;;;;;9.29;59.71;100752.03;5004793;28;19929;-77
2021/10/29 00:54:03;;;;;;;;;;;;;;;9.27;59.31;100752.03;5009919;28;19992;-77
2021/10/29 00:56:29;;;;;;;;;;;;;;;9.24;59.31;100749.41;5008353;28;19922;-78
2021/10/29 00:58:55;;;;;;;;;;;;;;;9.23;59.47;100755.44;4997323;28;19931;-79
2021/10/29 01:01:20;;;;;;;;;;;;;;;9.20;59.45;100750.22;5029490;28;19920;-78
2021/10/29 01:03:46;;;;;;;;;;;;;;;9.19;59.48;100753.66;5026670;28;19925;-77
2021/10/29 01:06:12;;;;;;;;;;;;;;;9.18;59.61;100763.19;5016013;28;20274;-78
2021/10/29 01:08:38;;;;;;;;;;;;;;;9.19;59.87;100769.25;5013061;28;21053;-80
2021/10/29 01:11:04;;;;;;;;;;;;;;;9.19;59.59;100775.34;5012955;28;20382;-79
2021/10/29 01:13:31;;;;;;;;;;;;;;;9.17;59.61;100769.25;5015004;28;19929;-79
2021/10/29 01:15:57;;;;;;;;;;;;;;;9.23;59.89;100768.44;5010290;28;20393;-77
2021/10/29 01:18:22;;;;;;;;;;;;;;;9.25;59.74;100771.94;5008266;28;20056;-78
2021/10/29 01:20:48;;;;;;;;;;;;;;;9.28;59.63;100774.56;5020404;28;19925;-79
2021/10/29 01:23:13;;;;;;;;;;;;;;;9.30;59.99;100766.78;4991462;28;19977;-78
2021/10/29 01:25:39;;;;;;;;;;;;;;;9.08;59.17;100763.06;5006404;28;19937;-76
2021/10/29 01:28:09;;;;;;;;;;;;;;;9.07;59.87;100771.69;5008899;28;19925;-78
2021/10/29 01:30:36;;;;;;;;;;;;;;;9.10;59.62;100766.56;5005221;28;20069;-80
2021/10/29 01:33:02;;;;;;;;;;;;;;;9.14;59.73;100763.16;5009582;28;19940;-79
2021/10/29 01:35:28;;;;;;;;;;;;;;;9.18;59.68;100757.13;5005848;28;20300;-76
2021/10/29 01:37:54;;;;;;;;;;;;;;;9.14;59.44;100764.00;5006653;28;19921;-77
2021/10/29 01:40:20;;;;;;;;;;;;;;;9.13;59.63;100766.59;5004226;28;20413;-79
2021/10/29 01:42:47;;;;;;;;;;;;;;;9.13;59.68;100770.06;5006094;28;19922;-80
2021/10/29 01:45:14;;;;;;;;;;;;;;;9.12;59.56;100749.28;4988363;28;20415;-76
2021/10/29 01:47:40;;;;;;;;;;;;;;;9.11;59.66;100755.31;5005762;28;19925;-78
2021/10/29 01:50:07;;;;;;;;;;;;;;;9.13;59.68;100751.03;5006215;28;19922;-77
2021/10/29 01:52:32;;;;;;;;;;;;;;;9.06;59.58;100752.63;4992156;28;19929;-79
2021/10/29 01:54:58;;;;;;;;;;;;;;;8.89;59.33;100745.50;4991902;28;19933;-79
2021/10/29 01:57:25;;;;;;;;;;;;;;;8.84;59.96;100746.31;5006686;28;20385;-79
2021/10/29 01:59:51;;;;;;;;;;;;;;;8.84;59.53;100751.50;5007243;28;19922;-79
2021/10/29 02:02:16;;;;;;;;;;;;;;;8.82;59.90;100755.81;4992983;28;19928;-78
2021/10/29 02:04:42;;;;;;;;;;;;;;;8.82;59.86;100758.41;5022694;28;19944;-80
2021/10/29 02:07:08;;;;;;;;;;;;;;;8.80;60.01;100765.28;4990543;28;19991;-78
2021/10/29 02:09:34;;;;;;;;;;;;;;;8.78;59.66;100764.38;5011722;28;19921;-79
2021/10/29 02:11:59;;;;;;;;;;;;;;;8.75;59.89;100767.81;5014465;28;19948;-78
2021/10/29 02:14:25;;;;;;;;;;;;;;;8.71;60.00;100774.72;5011362;28;19925;-76
2021/10/29 02:16:51;;;;;;;;;;;;;;;8.64;59.57;100775.47;5008388;28;19921;-78
2021/10/29 02:19:16;;;;;;;;;;;;;;;8.60;60.02;100778.84;4996606;28;20445;-80
2021/10/29 02:21:42;;;;;;;;;;;;;;;8.60;60.16;100768.47;5013001;28;20004;-78
2021/10/29 02:24:08;;;;;;;;;;;;;;;8.63;60.37;100773.72;5006230;28;19926;-78
2021/10/29 02:26:34;;;;;;;;;;;;;;;8.68;60.33;100772.06;4976657;28;19979;-76
2021/10/29 02:29:03;;;;;;;;;;;;;;;8.70;60.14;100770.38;5004609;28;20024;-77
2021/10/29 02:31:30;;;;;;;;;;;;;;;8.68;60.21;100766.88;5003344;28;20393;-77
2021/10/29 02:33:56;;;;;;;;;;;;;;;8.66;60.02;100768.56;4988077;28;20052;-79
2021/10/29 02:36:22;;;;;;;;;;;;;;;8.66;60.55;100765.09;5004403;28;20016;-77
2021/10/29 02:38:48;;;;;;;;;;;;;;;8.62;59.32;100764.19;5004462;28;19922;-76
2021/10/29 02:41:14;;;;;;;;;;;;;;;8.53;59.95;100758.84;5007036;28;20006;-79
2021/10/29 02:43:41;;;;;;;;;;;;;;;8.44;60.03;100755.25;5007602;28;19980;-78
2021/10/29 02:46:07;;;;;;;;;;;;;;;8.33;60.17;100758.53;5013593;28;19932;-77
2021/10/29 02:48:32;;;;;;;;;;;;;;;8.16;60.02;100776.41;5014373;28;19921;-78
2021/10/29 02:51:10;;;;;;;;;;;;;;;8.10;60.71;100765.06;4992154;28;20120;-78
2021/10/29 02:53:45;;;;;;;;;;;;;;;8.04;60.71;100767.59;4992697;28;20456;-78
2021/10/29 02:56:13;;;;;;;;;;;;;;;8.01;60.53;100774.41;5005919;28;19964;-80
2021/10/29 02:58:39;;;;;;;;;;;;;;;7.93;60.68;100774.28;4990728;28;19932;-78
2021/10/29 03:01:05;;;;;;;;;;;;;;;7.93;60.85;100779.47;5003736;28;19921;-78
2021/10/29 03:03:31;;;;;;;;;;;;;;;7.88;60.82;100797.53;5003254;28;19921;-78
2021/10/29 03:05:57;;;;;;;;;;;;;;;7.82;61.10;100803.50;4985882;28;19926;-76
2021/10/29 03:08:22;;;;;;;;;;;;;;;7.80;61.11;100802.59;5015482;28;19910;-78
2021/10/29 03:10:48;;;;;;;;;;;;;;;7.74;60.96;100789.50;5014368;28;20036;-80
2021/10/29 03:13:16;;;;;;;;;;;;;;;7.72;61.21;100792.94;5008738;28;20052;-77
2021/10/29 03:15:42;;;;;;;;;;;;;;;7.67;61.36;100798.88;5005910;28;19921;-77
2021/10/29 03:18:07;;;;;;;;;;;;;;;7.59;61.38;100809.94;4993325;28;21036;-77
2021/10/29 03:20:33;;;;;;;;;;;;;;;7.53;61.57;100814.16;5004848;28;19928;-79
2021/10/29 03:22:59;;;;;;;;;;;;;;;7.53;61.86;100805.50;5004953;28;19959;-80
2021/10/29 03:25:25;;;;;;;;;;;;;;;7.53;61.50;100811.56;5006006;28;19926;-80
2021/10/29 03:27:51;;;;;;;;;;;;;;;7.56;61.79;100805.56;5001082;28;19920;-80
2021/10/29 03:30:16;;;;;;;;;;;;;;;7.52;61.83;100799.47;5004748;28;20396;-80
2021/10/29 03:32:44;;;;;;;;;;;;;;;7.51;61.73;100800.31;4990274;28;19921;-81
2021/10/29 03:35:10;;;;;;;;;;;;;;;7.47;61.68;100797.63;5005869;28;20329;-80
2021/10/29 03:43:14;;;;;;;;;;;;;;;7.27;61.75;100820.50;5005652;28;20393;-79
2021/10/29 03:48:54;;;;;;;;;;;;;;;7.28;62.21;100817.09;5008591;28;19980;-78
2021/10/29 03:51:17;;;;;;;;;;;;;;;7.27;61.86;100808.47;5005598;28;19922;-83
2021/10/29 03:53:49;;;;;;;;;;;;;;;7.29;61.97;100816.25;5006054;28;19925;-79
2021/10/29 03:56:19;;;;;;;;;;;;;;;7.31;62.42;100830.09;4990227;28;19970;-77
2021/10/29 03:58:50;;;;;;;;;;;;;;;7.35;62.51;100817.25;4988571;28;19928;-76
2021/10/29 04:01:16;;;;;;;;;;;;;;;7.40;62.40;100822.50;5008247;28;20118;-78
2021/10/29 04:03:42;;;;;;;;;;;;;;;7.41;61.98;100819.06;4994321;28;19964;-78
2021/10/29 04:06:08;;;;;;;;;;;;;;;7.44;62.43;100821.72;5010617;28;20040;-80
2021/10/29 04:08:33;;;;;;;;;;;;;;;7.43;62.28;100819.13;5017383;28;20439;-78
2021/10/29 04:10:59;;;;;;;;;;;;;;;7.43;62.46;100814.81;5017571;28;19925;-76
2021/10/29 04:13:33;;;;;;;;;;;;;;;7.42;61.94;100805.28;5000135;28;19961;-77
2021/10/29 04:16:00;;;;;;;;;;;;;;;7.42;62.28;100813.06;5021601;28;19932;-76
2021/10/29 04:18:26;;;;;;;;;;;;;;;7.43;62.42;100816.53;5017740;28;19922;-79
2021/10/29 04:20:52;;;;;;;;;;;;;;;7.42;62.67;100825.16;5005478;28;19928;-79
2021/10/29 04:23:18;;;;;;;;;;;;;;;7.42;62.47;100830.31;5008730;28;20375;-77
2021/10/29 04:25:43;;;;;;;;;;;;;;;7.39;62.22;100838.91;5008117;28;20317;-79
2021/10/29 04:28:11;;;;;;;;;;;;;;;7.36;62.35;100824.16;4994360;28;19953;-77
2021/10/29 04:30:37;;;;;;;;;;;;;;;7.38;62.69;100816.44;4987197;28;20629;-77
2021/10/29 04:33:09;;;;;;;;;;;;;;;7.38;62.66;100819.91;5006794;28;20032;-78
2021/10/29 04:35:35;;;;;;;;;;;;;;;7.41;62.59;100819.06;5007273;28;20059;-78
2021/10/29 04:38:04;;;;;;;;;;;;;;;7.45;62.74;100825.22;5007468;28;19921;-76
2021/10/29 04:40:36;;;;;;;;;;;;;;;7.48;62.99;100828.72;5007942;28;20303;-77
2021/10/29 04:43:06;;;;;;;;;;;;;;;7.52;62.92;100827.06;4992735;28;19933;-76
2021/10/29 04:45:35;;;;;;;;;;;;;;;7.53;62.61;100821.94;5007630;28;19972;-79
2021/10/29 04:48:03;;;;;;;;;;;;;;;7.53;62.42;100816.75;5007885;28;20066;-78
2021/10/29 04:50:46;;;;;;;;;;;;;;;7.58;62.64;100821.16;5008516;28;19925;-80
2021/10/29 04:53:12;;;;;;;;;;;;;;;7.66;62.66;100833.41;5008346;28;19968;-78
2021/10/29 04:55:47;;;;;;;;;;;;;;;7.75;62.82;100829.22;5003562;28;19921;-80
2021/10/29 04:58:13;;;;;;;;;;;;;;;8.10;62.69;100829.88;5007737;28;20004;-79
2021/10/29 05:00:42;;;;;;;;;;;;;;;8.53;62.17;100828.88;5005245;28;20045;-77
2021/10/29 05:03:08;;;;;;;;;;;;;;;8.51;61.54;100836.66;4993198;28;19921;-78
2021/10/29 05:05:35;;;;;;;;;;;;;;;8.36;61.63;100836.38;5003894;28;19929;-80
2021/10/29 05:08:07;;;;;;;;;;;;;;;8.21;61.38;100842.19;5018703;28;19928;-77
2021/10/29 05:10:46;;;;;;;;;;;;;;;8.12;61.56;100848.06;5006390;28;19925;-78
2021/10/29 05:13:12;;;;;;;;;;;;;;;8.09;62.00;100845.44;5022790;28;19913;-78
2021/10/29 05:15:40;;;;;;;;;;;;;;;8.07;61.78;100857.47;5015655;28;19934;-78
2021/10/29 05:18:14;;;;;;;;;;;;;;;8.05;61.82;100861.75;5011693;28;19922;-78
2021/10/29 05:20:42;;;;;;;;;;;;;;;8.03;61.54;100858.25;4996469;28;19989;-77
2021/10/29 05:23:18;;;;;;;;;;;;;;;8.00;61.75;100861.69;5007041;28;19931;-79
2021/10/29 05:25:44;;;;;;;;;;;;;;;8.00;61.74;100856.50;5024470;28;19922;-78
2021/10/29 05:28:10;;;;;;;;;;;;;;;8.01;61.76;100852.19;5007385;28;20012;-78
2021/10/29 05:33:27;;;;;;;;;;;;;;;8.12;62.00;100859.31;5007422;28;19930;-77
2021/10/29 05:35:59;;;;;;;;;;;;;;;8.17;61.77;100863.69;4994500;28;19921;-77
2021/10/29 05:38:28;;;;;;;;;;;;;;;8.19;61.71;100862.00;5023201;28;19928;-79
2021/10/29 05:41:04;;;;;;;;;;;;;;;8.13;61.53;100857.59;5016174;28;19934;-77
2021/10/29 05:43:30;;;;;;;;;;;;;;;8.19;61.51;100857.69;5003074;28;19995;-80
2021/10/29 05:46:16;;;;;;;;;;;;;;;8.22;61.61;100854.28;4995256;28;20359;-79
2021/10/29 05:48:45;;;;;;;;;;;;;;;8.26;61.53;100861.28;5004851;28;20011;-80
2021/10/29 05:51:23;;;;;;;;;;;;;;;8.29;61.52;100853.53;4976767;28;19918;-76
2021/10/29 05:56:14;;;;;;;;;;;;;;;8.34;61.34;100854.50;5006491;28;19921;-80
2021/10/29 05:58:40;;;;;;;;;;;;;;;8.43;61.31;100856.38;4975777;28;19948;-80
2021/10/29 06:01:06;;;;;;;;;;;;;;;8.50;60.88;100871.22;5005111;28;19962;-79
2021/10/29 06:03:35;;;;;;;;;;;;;;;8.52;60.77;100879.91;4982260;28;19921;-78
2021/10/29 06:06:01;;;;;;;;;;;;;;;8.51;60.79;100872.09;5011030;28;19968;-78
2021/10/29 06:08:32;;;;;;;;;;;;;;;8.57;60.93;100874.78;4982560;28;19921;-78
2021/10/29 06:10:58;;;;;;;;;;;;;;;8.64;60.37;100868.88;5017942;28;19987;-80
2021/10/29 06:13:23;;;;;;;;;;;;;;;8.72;60.78;100867.25;5010075;28;19933;-77
2021/10/29 06:15:50;;;;;;;;;;;;;;;8.77;60.39;100882.03;5002021;28;19921;-77
2021/10/29 06:18:27;;;;;;;;;;;;;;;8.80;60.22;100867.41;5012378;28;19935;-77
2021/10/29 06:20:54;;;;;;;;;;;;;;;8.79;60.32;100869.94;5012653;28;19983;-78
2021/10/29 06:23:24;;;;;;;;;;;;;;;8.76;59.92;100873.38;4997538;28;19966;-80
2021/10/29 06:25:59;;;;;;;;;;;;;;;8.78;59.86;100875.97;5009414;28;19943;-78
2021/10/29 06:28:28;;;;;;;;;;;;;;;8.81;59.74;100876.03;5024375;28;19979;-77
2021/10/29 06:30:55;;;;;;;;;;;;;;;8.81;59.79;100871.75;5008290;28;19921;-78
2021/10/29 06:33:24;;;;;;;;;;;;;;;8.81;59.26;100870.84;5024131;28;19949;-78
2021/10/29 06:35:59;;;;;;;;;;;;;;;8.83;59.54;100866.56;5010979;28;20285;-79
2021/10/29 06:38:25;;;;;;;;;;;;;;;8.89;59.58;100866.66;4998691;28;19925;-77
2021/10/29 06:40:51;;;;;;;;;;;;;;;8.91;59.70;100867.56;5011511;28;20282;-78
2021/10/29 06:43:27;;;;;;;;;;;;;;;9.01;59.30;100865.97;5017173;28;19921;-79
2021/10/29 06:46:07;;;;;;;;;;;;;;;9.16;59.20;100870.47;5007075;28;20020;-78
2021/10/29 07:40:47;;;;;;;;;;;;;;;10.20;56.69;100838.78;5009207;28;19925;-80
2021/10/29 07:44:01;;;;;;;;;;;;;;;10.17;56.23;100846.56;5012069;28;19928;-80
2021/10/29 07:46:00;;;;;;;;;;;;;;;10.19;56.73;100843.94;5006774;28;19949;-77
2021/10/29 07:48:26;;;;;;;;;;;;;;;10.31;56.35;100838.00;4996003;28;20001;-77
2021/10/29 07:50:52;;;;;;;;;;;;;;;10.41;56.45;100837.25;5009340;28;20464;-79
2021/10/29 07:53:18;;;;;;;;;;;;;;;10.57;56.53;100834.78;5007881;28;19922;-78
2021/10/29 07:55:44;;;;;;;;;;;;;;;10.77;56.43;100830.56;5009415;28;20004;-77
2021/10/29 07:58:09;;;;;;;;;;;;;;;11.05;56.25;100830.75;5022312;28;19975;-78
2021/10/29 08:00:35;;;;;;;;;;;;;;;11.69;56.46;100824.06;5009241;28;19993;-78
2021/10/29 08:03:05;;;;;;;;;;;;;;;12.61;56.15;100804.19;4977855;28;19925;-79
2021/10/29 08:05:31;;;;;;;;;;;;;;;13.16;55.17;100812.75;5009281;28;19957;-82
2021/10/29 08:07:57;;;;;;;;;;;;;;;13.31;53.84;100811.81;4996832;28;19926;-78
2021/10/29 08:10:23;;;;;;;;;;;;;;;13.14;53.42;100805.78;5014672;28;19921;-80
2021/10/29 08:12:49;;;;;;;;;;;;;;;12.80;52.80;100805.00;5011307;28;20974;-79
2021/10/29 08:15:14;;;;;;;;;;;;;;;12.41;53.21;100795.50;5011584;28;19953;-78
2021/10/29 08:17:41;;;;;;;;;;;;;;;12.22;53.20;100792.00;5014953;28;19951;-80
2021/10/29 08:20:08;;;;;;;;;;;;;;;12.08;53.36;100789.38;5010385;28;19921;-74
2021/10/29 08:22:36;;;;;;;;;;;;;;;11.84;53.82;100793.66;4989945;28;19921;-75
2021/10/29 08:25:01;;;;;;;;;;;;;;;11.57;53.31;100805.81;5003055;28;19926;-77
2021/10/29 08:27:28;;;;;;;;;;;;;;;11.41;54.47;100805.72;4990719;28;19921;-75
2021/10/29 08:29:55;;;;;;;;;;;;;;;11.35;54.30;100800.50;4991200;28;20215;-74
2021/10/29 08:32:21;;;;;;;;;;;;;;;11.23;53.92;100797.84;4995606;28;19925;-73
2021/10/29 08:34:47;;;;;;;;;;;;;;;11.11;54.63;100811.69;5009264;28;19932;-71
2021/10/29 08:37:13;;;;;;;;;;;;;;;11.05;54.98;100799.50;4990491;28;19922;-78
2021/10/29 08:39:39;;;;;;;;;;;;;;;11.04;54.69;100802.06;5009893;28;19928;-74
2021/10/29 08:42:06;;;;;;;;;;;;;;;10.98;54.80;100805.53;4989911;28;19926;-76
2021/10/29 08:44:32;;;;;;;;;;;;;;;10.95;55.04;100798.59;4994892;28;19932;-80
2021/10/29 08:47:01;;;;;;;;;;;;;;;10.91;54.99;100799.44;5007447;28;19988;-77
2021/10/29 08:49:31;;;;;;;;;;;;;;;10.90;54.95;100808.09;5028512;28;19965;-76
2021/10/29 08:51:57;;;;;;;;;;;;;;;10.78;54.94;100806.28;5015064;28;19933;-75
2021/10/29 08:54:23;;;;;;;;;;;;;;;10.67;54.91;100806.22;5013104;28;19993;-77
2021/10/29 08:56:50;;;;;;;;;;;;;;;10.58;55.14;100810.50;4998169;28;19976;-76
2021/10/29 09:02:00;;;;;;;;;;;;;;;10.49;54.98;100803.50;5010488;28;20112;-78
2021/10/29 09:04:37;;;;;;;;;;;;;;;10.51;55.33;100796.56;4992410;28;20401;-76
2021/10/29 09:31:24;;;;;;;;;;;;;;;10.52;55.96;100769.69;5018772;28;19922;-75
2021/10/29 09:33:54;;;;;;;;;;;;;;;10.55;55.41;100774.91;5017773;28;19940;-75
2021/10/29 09:36:28;;;;;;;;;;;;;;;10.62;55.34;100762.81;5014500;28;20431;-76
2021/10/29 09:38:58;;;;;;;;;;;;;;;10.86;55.31;100775.09;5025092;28;19932;-77
2021/10/29 09:42:19;;;;;;;;;;;;;;;11.24;55.20;100766.59;5008486;28;19949;-76
2021/10/29 09:44:46;;;;;;;;;;;;;;;11.32;55.04;100769.22;5011242;28;19925;-77
2021/10/29 09:47:17;;;;;;;;;;;;;;;11.13;55.32;100757.84;5021319;28;20373;-81
2021/10/29 09:57:33;;;;;;;;;;;;;;;10.61;55.56;100758.47;5004547;28;19913;-74
2021/10/29 10:00:03;;;;;;;;;;;;;;;10.53;55.36;100756.66;5023887;28;19932;-77
2021/10/29 10:02:29;;;;;;;;;;;;;;;10.51;55.99;100750.56;5021291;28;19952;-75
2021/10/29 10:04:57;;;;;;;;;;;;;;;10.45;55.68;100747.97;5008543;28;20854;-76
2021/10/29 10:07:24;;;;;;;;;;;;;;;10.41;56.17;100748.78;5007868;28;19944;-75
2021/10/29 10:09:51;;;;;;;;;;;;;;;10.40;55.88;100752.25;5027815;28;20287;-75
2021/10/29 10:12:20;;;;;;;;;;;;;;;10.31;56.07;100746.94;5023721;28;19925;-74
2021/10/29 10:14:46;;;;;;;;;;;;;;;10.25;56.25;100739.97;5035163;28;19940;-72
2021/10/29 10:17:14;;;;;;;;;;;;;;;10.30;57.02;100742.59;5018872;28;20032;-75
2021/10/29 10:19:41;;;;;;;;;;;;;;;10.43;56.63;100738.38;5017990;28;19922;-75
2021/10/29 10:22:11;;;;;;;;;;;;;;;10.46;56.74;100739.28;5015563;28;19977;-76
2021/10/29 10:24:38;;;;;;;;;;;;;;;10.51;56.89;100734.97;5016126;28;19925;-73
2021/10/29 10:27:29;;;;;;;;;;;;;;;10.58;56.44;100728.09;5018218;28;19921;-72
2021/10/29 10:30:07;;;;;;;;;;;;;;;10.59;56.80;100735.03;5006644;28;19921;-76
2021/10/29 10:41:29;;;;;;;;;;;;;;;10.82;56.49;100737.75;4999348;28;20030;-74
2021/10/29 10:44:17;;;;;;;;;;;;;;;10.83;56.51;100739.50;4992676;28;19921;-78
2021/10/29 10:46:48;;;;;;;;;;;;;;;10.84;56.54;100745.56;5007440;28;20270;-75
2021/10/29 10:49:17;;;;;;;;;;;;;;;10.91;56.05;100755.16;5008331;28;19984;-78
2021/10/29 10:51:49;;;;;;;;;;;;;;;10.94;56.38;100756.91;5006421;28;19960;-78
2021/10/29 10:54:23;;;;;;;;;;;;;;;10.95;56.18;100754.31;5020116;28;19926;-75
2021/10/29 10:57:09;;;;;;;;;;;;;;;10.95;56.52;100749.09;5003876;28;19983;-75
2021/10/29 10:59:53;;;;;;;;;;;;;;;10.95;56.26;100754.31;5007535;28;19989;-76
2021/10/29 11:05:58;;;;;;;;;;;;;;;11.02;56.40;100749.16;5005097;28;19925;-74
2021/10/29 11:11:00;;;;;;;;;;;;;;;11.15;56.40;100736.16;5021636;28;19986;-72
2021/10/29 11:13:46;;;;;;;;;;;;;;;11.15;56.25;100736.16;5016413;28;19968;-75
2021/10/29 11:16:28;;;;;;;;;;;;;;;11.07;56.17;100740.47;5022803;28;19937;-76
2021/10/29 11:19:06;;;;;;;;;;;;;;;11.08;56.66;100752.63;5006403;28;19922;-72
2021/10/29 11:21:36;;;;;;;;;;;;;;;11.10;56.29;100748.31;5016403;28;19922;-74
2021/10/29 11:24:07;;;;;;;;;;;;;;;11.10;56.46;100742.22;5007226;28;19975;-76
2021/10/29 11:26:40;;;;;;;;;;;;;;;11.06;56.67;100743.06;4989169;28;20297;-73
2021/10/29 11:29:06;;;;;;;;;;;;;;;11.06;56.88;100743.94;5005688;28;19926;-75
2021/10/29 11:31:34;;;;;;;;;;;;;;;11.08;56.83;100752.63;5008834;28;20400;-78
2021/10/29 11:34:05;;;;;;;;;;;;;;;11.06;56.83;100748.25;5003336;28;20127;-75
2021/10/29 11:36:32;;;;;;;;;;;;;;;11.05;56.75;100744.81;5013607;28;20385;-72
2021/10/29 11:38:59;;;;;;;;;;;;;;;11.06;57.14;100736.13;4975150;28;19956;-73
2021/10/29 11:41:32;;;;;;;;;;;;;;;11.09;57.34;100737.88;5007976;28;19931;-75
2021/10/29 11:44:05;;;;;;;;;;;;;;;11.08;57.08;100746.53;4989993;28;19932;-73
2021/10/29 11:46:32;;;;;;;;;;;;;;;11.06;57.15;100748.25;5017674;28;19922;-76
2021/10/29 11:48:59;;;;;;;;;;;;;;;11.03;57.48;100746.53;5000877;28;19925;-75
2021/10/29 11:51:26;;;;;;;;;;;;;;;11.03;57.72;100745.69;5002823;28;19928;-79
2021/10/29 11:53:56;;;;;;;;;;;;;;;11.06;57.75;100749.16;4994176;28;19932;-74
2021/10/29 12:07:18;;;;;;;;;;;;;;;11.10;58.12;100757.84;4999037;28;19925;-72
2021/10/29 12:09:45;;;;;;;;;;;;;;;11.02;57.76;100754.34;4975337;28;19928;-75
2021/10/29 12:12:18;;;;;;;;;;;;;;;10.89;57.74;100763.84;5013570;28;19936;-73
2021/10/29 12:14:45;;;;;;;;;;;;;;;10.79;58.67;100763.78;5009090;28;21005;-75
2021/10/29 12:17:18;;;;;;;;;;;;;;;10.67;58.81;100761.97;5009451;28;19957;-76
2021/10/29 12:19:46;;;;;;;;;;;;;;;10.60;59.43;100762.78;5004754;28;19921;-74
2021/10/29 12:22:30;;;;;;;;;;;;;;;10.56;59.22;100755.84;4994202;28;20398;-77
2021/10/29 12:25:04;;;;;;;;;;;;;;;10.27;60.01;100719.16;5009592;28;20026;-75
2021/10/29 12:27:39;;;;;;;;;;;;;;;10.47;60.10;100751.44;5007014;28;19956;-76
2021/10/29 12:30:15;;;;;;;;;;;;;;;10.46;60.83;100752.31;5008297;28;19961;-73
2021/10/29 12:33:00;;;;;;;;;;;;;;;10.45;60.92;100747.97;5008066;28;20025;-79
2021/10/29 12:52:47;;;;;;;;;;;;;;;10.54;61.65;100741.94;4995755;28;19932;-75
2021/10/29 13:03:24;;;;;;;;;;;;;;;10.39;62.25;100738.34;5011234;28;20044;-77
2021/10/29 13:05:54;;;;;;;;;;;;;;;10.36;62.48;100737.44;4992581;28;19932;-74
2021/10/29 13:08:21;;;;;;;;;;;;;;;10.34;62.82;100732.25;4994027;28;19944;-73
2021/10/29 13:10:50;;;;;;;;;;;;;;;10.28;62.66;100736.50;5025976;28;19928;-73
2021/10/29 13:16:00;;;;;;;;;;;;;;;10.28;63.78;100732.19;5007432;28;19929;-75
2021/10/29 13:18:35;;;;;;;;;;;;;;;10.31;63.57;100728.72;5005881;28;19943;-79
2021/10/29 13:29:10;;;;;;;;;;;;;;;10.09;63.85;100706.06;5011425;28;19929;-72
2021/10/29 13:34:47;;;;;;;;;;;;;;;10.06;64.42;100707.75;5022539;28;19984;-78
2021/10/29 13:53:56;;;;;;;;;;;;;;;10.09;65.90;100697.38;5008659;28;19932;-76
2021/10/29 14:01:52;;;;;;;;;;;;;;;10.04;65.99;100699.09;5005242;28;19928;-76
2021/10/29 14:34:36;;;;;;;7.65;2.15;;;;;;;10.25;67.12;100743.47;5030835;28;20057;-79
2021/10/29 14:37:12;;;;;;;5.47;2.20;;;;;;;10.23;67.28;100721.75;5040488;28;20045;-79
2021/10/29 14:44:48;;;;;;;5.13;2.83;;;;;;;10.20;67.65;100726.94;5043203;28;20037;-78
2021/10/29 14:50:25;;;;;;;8.60;2.83;;;;;;;9.90;68.05;100675.56;5060485;28;20044;-79
2021/10/29 15:05:08;;;;;;;5.97;3.00;;;;;;;10.11;68.33;100724.25;5045866;28;20049;-79
2021/10/29 15:32:47;;;;;;;4.60;3.05;;;;;;;10.19;69.92;100724.31;5019639;28;20052;-77
2021/10/29 15:44:05;;;;;;;6.70;3.20;;;;;;;10.31;69.20;100749.53;5046660;28;20056;-79
2021/10/29 15:46:56;;;;;;;7.60;3.22;;;;;;;10.30;70.02;100759.09;5032283;28;20049;-81
2021/10/29 15:49:42;;;;;;;7.65;2.75;;;;;;;10.08;69.70;100725.13;5032700;28;20037;-81
2021/10/29 15:52:20;;;;;;;7.13;2.63;;;;;;;10.10;69.89;100725.13;5027201;28;20046;-81
2021/10/29 15:57:47;;;;;;;4.93;2.58;;;;;;;10.07;70.07;100741.56;5024578;28;20050;-80
2021/10/29 16:00:38;;;;;;;4.68;2.83;;;;;;;10.10;70.31;100735.50;5015870;28;20542;-78
2021/10/29 16:19:56;;;;;;;11.75;3.78;;;;;;;10.18;70.76;100757.25;5025941;28;20045;-77
2021/10/29 16:22:24;;;;;;;7.68;3.80;;;;;;;10.17;70.54;100758.13;5026692;28;20085;-78
2021/10/29 16:27:21;;;;;;;6.55;3.80;;;;;;;10.18;70.78;100748.56;5023584;28;20041;-78
2021/10/29 16:29:49;;;;;;;12.73;4.50;;;;;;;10.05;70.75;100722.47;5021986;28;20136;-77
2021/10/29 16:32:26;;;;;;;9.95;3.65;;;;;;;9.91;70.96;100701.56;5028573;28;20161;-77
2021/10/29 16:34:57;;;;;;;7.32;3.40;;;;;;;10.04;70.92;100720.75;5026861;28;20041;-77
2021/10/29 16:37:23;;;;;;;6.32;3.55;;;;;;;10.00;71.33;100728.50;5014428;28;20570;-78
2021/10/29 16:39:54;;;;;;;6.28;3.67;;;;;;;10.03;71.39;100734.59;5027410;28;20099;-78
2021/10/29 16:42:23;;;;;;;11.55;3.58;;;;;;;9.97;70.99;100724.13;5016020;28;20045;-77
2021/10/29 16:44:54;;;;;;;8.57;3.70;;;;;;;9.79;71.47;100696.28;5027139;28;20053;-75
2021/10/29 16:47:24;;;;;;;11.40;3.42;;;;;;;10.06;71.71;100738.94;5029046;28;20551;-77
2021/10/29 16:49:52;;;;;;;11.18;4.03;;;;;;;9.93;72.04;100720.66;5011860;28;20080;-77
2021/10/29 16:52:18;;;;;;;8.18;3.40;;;;;;;10.05;71.91;100742.41;5015395;28;20132;-77
2021/10/29 16:54:47;;;;;;;10.82;4.78;;;;;;;10.01;71.62;100730.25;5026309;28;20137;-78
2021/10/29 16:57:13;;;;;;;7.32;4.15;;;;;;;10.03;71.71;100723.34;5029093;28;20094;-79
2021/10/29 16:59:39;;;;;;;8.38;4.20;;;;;;;10.05;71.85;100735.47;4997424;28;20041;-79
2021/10/29 17:02:04;;;;;;;10.55;4.82;;;;;;;10.13;72.21;100747.69;5029619;28;20084;-80
2021/10/29 17:04:31;;;;;;;11.13;4.22;;;;;;;10.06;72.04;100736.34;5027620;28;20520;-77
2021/10/29 17:06:57;;;;;;;8.43;3.78;;;;;;;10.12;72.20;100752.00;5007496;28;20045;-79
2021/10/29 17:09:27;;;;;;;11.73;4.43;;;;;;;9.56;72.08;100659.66;5006470;28;20046;-78
2021/10/29 17:11:53;;;;;;;8.70;4.05;;;;;;;10.12;72.41;100740.75;5026765;28;20037;-78
2021/10/29 17:14:30;;;;;;;7.82;4.03;;;;;;;10.10;72.34;100730.31;5022709;28;20461;-77
2021/10/29 17:16:57;;;;;;;8.73;4.28;;;;;;;9.77;72.25;100682.41;5009771;28;20837;-78
2021/10/29 17:19:23;;;;;;;9.52;3.92;;;;;;;10.02;72.18;100738.06;5025901;28;20583;-77
2021/10/29 17:22:08;;;;;;;11.68;3.65;;;;;;;9.65;72.44;100685.75;5028995;28;20117;-78
2021/10/29 17:24:35;;;;;;;8.63;4.20;;;;;;;9.79;72.12;100722.28;5011548;28;20076;-83
2021/10/29 17:27:01;;;;;;;8.45;4.28;;;;;;;9.84;72.53;100738.75;5028448;28;20048;-79
2021/10/29 17:29:33;;;;;;;9.32;3.92;;;;;;;9.84;72.59;100738.75;5017492;28;20049;-78
2021/10/29 17:32:21;;;;;;;9.85;3.92;;;;;;;9.90;72.76;100754.41;5030752;28;20065;-80
2021/10/29 17:35:09;;;;;;;15.30;4.50;;;;;;;9.37;72.54;100664.69;5043782;28;20116;-81